Fenner, New York
Current Conditions -  °F | °C
As of 7:54 PM on Sunday 23 Nov 2014 (Local Time) from KSYR Reporting Station
Scattered Clouds Scattered Clouds  
Wind Chill: 44°   Ceiling: Unl
Heat Index: 48°   Visibility: 10mi
Dew Point: 36°   Wind: 9mph
Humidity: 63%   Direction: 80°E
Pressure: 29.92"   Gusts: NA
Location:  42.9403°N, 75.8232°W
Report Text: KSYR 240054Z 08008KT 10SM SCT120 09/02 A2992 RMK AO2 SLP129 T00890022 $
Loading
Personal Weather Stations






























Interactive Weather Map New forecast layout! Learn more

10-Day Weather Forecast

Advertisements
Track Severe Weather on mobile